createdAt,value
2023-02-23T00:02:51.106Z,58.4
2023-02-23T00:08:45.122Z,58.4
2023-02-23T00:14:37.084Z,58.4
2023-02-23T00:20:29.014Z,58.3
2023-02-23T00:26:09.294Z,58.3
2023-02-23T00:32:04.856Z,58.2
2023-02-23T00:37:57.398Z,58.1
2023-02-23T00:43:51.101Z,58.1
2023-02-23T00:49:45.167Z,58.1
2023-02-23T00:55:37.638Z,58
2023-02-23T01:01:30.769Z,57.9
2023-02-23T01:07:23.695Z,57.9
2023-02-23T01:13:16.199Z,57.9
2023-02-23T01:19:10.160Z,57.8
2023-02-23T01:30:40.697Z,57.7
2023-02-23T01:36:36.645Z,57.7
2023-02-23T01:42:29.672Z,57.6
2023-02-23T01:48:21.939Z,57.6
2023-02-23T01:53:59.619Z,57.5
2023-02-23T01:59:53.215Z,57.4
2023-02-23T02:05:29.827Z,57.4
2023-02-23T02:11:23.784Z,57.4
2023-02-23T02:17:16.420Z,57.3
2023-02-23T02:22:54.202Z,57.3
2023-02-23T02:28:32.882Z,57.2
2023-02-23T02:34:26.127Z,57.2
2023-02-23T02:40:19.518Z,57.1
2023-02-23T02:46:13.202Z,57.1
2023-02-23T02:51:51.198Z,57
2023-02-23T02:57:28.682Z,57
2023-02-23T03:03:05.854Z,56.9
2023-02-23T03:08:42.924Z,56.9
2023-02-23T03:14:04.980Z,56.9
2023-02-23T03:19:43.202Z,56.8
2023-02-23T03:25:20.961Z,56.8
2023-02-23T03:30:42.345Z,56.7
2023-02-23T03:36:03.948Z,56.6
2023-02-23T03:41:26.597Z,56.6
2023-02-23T03:47:04.902Z,56.6
2023-02-23T03:52:43.006Z,56.5
2023-02-23T03:58:21.395Z,56.5
2023-02-23T04:03:58.622Z,56.4
2023-02-23T04:09:20.790Z,56.4
2023-02-23T04:14:43.337Z,56.4
2023-02-23T04:20:19.790Z,56.3
2023-02-23T04:25:57.206Z,56.3
2023-02-23T04:31:35.605Z,56.2
2023-02-23T04:37:28.246Z,56.1
2023-02-23T04:42:50.455Z,56.1
2023-02-23T04:48:27.804Z,56.1
2023-02-23T04:54:06.115Z,56
2023-02-23T05:00:02.309Z,55.9
2023-02-23T05:05:57.493Z,55.9
2023-02-23T05:11:48.985Z,55.9
2023-02-23T05:17:42.328Z,55.8
2023-02-23T05:23:36.382Z,55.8
2023-02-23T05:29:29.083Z,55.7
2023-02-23T05:35:23.472Z,55.6
2023-02-23T05:41:16.508Z,55.6
2023-02-23T05:46:53.342Z,55.6
2023-02-23T05:52:46.917Z,55.4
2023-02-23T05:58:24.694Z,55.4
2023-02-23T06:04:01.612Z,55.4
2023-02-23T06:09:54.789Z,55.4
2023-02-23T06:15:47.889Z,55.3
2023-02-23T06:21:39.694Z,55.3
2023-02-23T06:27:34.516Z,55.2
2023-02-23T06:33:28.374Z,55.1
2023-02-23T06:39:20.594Z,55.1
2023-02-23T06:45:13.247Z,55.1
2023-02-23T06:51:05.676Z,55
2023-02-23T06:56:45.410Z,54.9
2023-02-23T07:02:38.918Z,54.9
2023-02-23T07:08:31.824Z,54.9
2023-02-23T07:14:29.088Z,54.8
2023-02-23T07:20:22.008Z,54.8
2023-02-23T07:26:14.711Z,54.8
2023-02-23T07:32:08.156Z,54.7
2023-02-23T07:38:02.015Z,54.6
2023-02-23T07:43:56.083Z,54.6
2023-02-23T07:49:49.178Z,54.5
2023-02-23T07:55:42.283Z,54.5
2023-02-23T08:01:37.216Z,54.4
2023-02-23T08:07:29.926Z,54.4
2023-02-23T08:13:24.919Z,54.4
2023-02-23T08:19:17.343Z,54.3
2023-02-23T08:25:21.928Z,54.3
2023-02-23T08:31:15.499Z,54.2
2023-02-23T08:37:09.230Z,54.1
2023-02-23T08:43:02.250Z,54
2023-02-23T08:48:55.487Z,53.9
2023-02-23T08:54:47.708Z,53.9
2023-02-23T09:00:23.990Z,53.9
2023-02-23T09:06:17.412Z,53.8
2023-02-23T09:12:10.460Z,53.8
2023-02-23T09:18:02.784Z,53.6
2023-02-23T09:23:56.394Z,53.8
2023-02-23T09:29:37.250Z,53.9
2023-02-23T09:35:14.460Z,54.1
2023-02-23T09:41:04.063Z,54.3
2023-02-23T09:46:42.056Z,54.6
2023-02-23T09:52:35.157Z,54.9
2023-02-23T09:58:28.092Z,55.3
2023-02-23T10:04:05.850Z,55.6
2023-02-23T10:10:01.064Z,56
2023-02-23T10:15:41.216Z,56.4
2023-02-23T10:21:53.037Z,56.9
2023-02-23T10:27:45.444Z,57.2
2023-02-23T10:33:23.549Z,57.6
2023-02-23T10:39:21.678Z,57.9
2023-02-23T10:45:06.074Z,58.3
2023-02-23T10:56:42.785Z,58.9
2023-02-23T11:02:50.681Z,59.3
2023-02-23T11:08:53.742Z,59.6
2023-02-23T11:15:04.411Z,59.9
2023-02-23T11:21:10.635Z,60.2
2023-02-23T11:27:13.020Z,60.4
2023-02-23T11:33:06.557Z,60.3
2023-02-23T11:38:58.717Z,60.4
2023-02-23T11:44:55.443Z,60.5
2023-02-23T11:50:50.023Z,60.5
2023-02-23T11:56:26.340Z,60.5
2023-02-23T12:02:20.668Z,60.5
2023-02-23T12:08:14.761Z,60.4
2023-02-23T12:13:52.425Z,60.4
2023-02-23T12:19:45.518Z,60.4
2023-02-23T12:25:38.807Z,60.4
2023-02-23T12:31:43.308Z,60.4
2023-02-23T12:37:36.323Z,60.3
2023-02-23T12:43:29.486Z,60.3
2023-02-23T12:49:06.482Z,60.3
2023-02-23T12:55:00.343Z,60.3
2023-02-23T13:00:55.409Z,60.3
2023-02-23T13:06:48.372Z,60.2
2023-02-23T13:12:49.203Z,60.1
2023-02-23T13:18:41.942Z,60.1
2023-02-23T13:24:19.802Z,60.1
2023-02-23T13:29:57.728Z,60
2023-02-23T13:35:45.702Z,60
2023-02-23T13:41:52.030Z,59.9
2023-02-23T13:47:44.361Z,59.9
2023-02-23T13:53:45.081Z,59.7
2023-02-23T13:59:47.407Z,59.8
2023-02-23T14:05:41.929Z,59.8
2023-02-23T14:11:05.517Z,59.7
2023-02-23T14:17:01.576Z,59.6
2023-02-23T14:23:04.256Z,59.6
2023-02-23T14:29:13.658Z,59.6
2023-02-23T14:35:01.576Z,59.5
2023-02-23T14:41:06.195Z,59.4
2023-02-23T14:47:10.639Z,59.4
2023-02-23T14:53:17.592Z,59.4
2023-02-23T14:59:01.939Z,59.3
2023-02-23T15:05:11.945Z,59.4
2023-02-23T15:11:04.077Z,59.3
2023-02-23T15:17:04.983Z,59.2
2023-02-23T15:23:08.133Z,59.1
2023-02-23T15:29:15.491Z,59.1
2023-02-23T15:35:09.902Z,59.1
2023-02-23T15:41:35.460Z,59
2023-02-23T15:47:37.241Z,58.9
2023-02-23T15:53:43.598Z,58.9
2023-02-23T15:59:29.888Z,58.8
2023-02-23T16:05:22.898Z,58.8
2023-02-23T16:11:25.024Z,58.8
2023-02-23T16:17:28.137Z,58.7
2023-02-23T16:23:25.145Z,58.6
2023-02-23T16:40:21.899Z,58.5
2023-02-23T16:46:23.839Z,58.4
2023-02-23T16:52:21.853Z,58.4
2023-02-23T16:58:14.808Z,58.3
2023-02-23T17:04:20.350Z,58.3
2023-02-23T17:10:04.664Z,58.3
2023-02-23T17:15:58.411Z,58.2
2023-02-23T17:21:51.968Z,58.1
2023-02-23T17:27:45.027Z,58.1
2023-02-23T17:33:42.338Z,58.1
2023-02-23T17:39:35.708Z,58
2023-02-23T17:45:29.084Z,57.9
2023-02-23T17:51:23.144Z,57.9
2023-02-23T17:57:18.016Z,57.9
2023-02-23T18:03:12.296Z,57.8
2023-02-23T18:14:42.822Z,57.7
2023-02-23T18:20:37.485Z,57.6
2023-02-23T18:26:31.102Z,57.6
2023-02-23T18:32:08.652Z,57.6
2023-02-23T18:38:03.311Z,57.5
2023-02-23T18:43:56.204Z,57.4
2023-02-23T18:49:34.037Z,57.4
2023-02-23T18:55:11.175Z,57.4
2023-02-23T19:01:07.567Z,57.4
2023-02-23T19:07:02.112Z,57.3
2023-02-23T19:12:39.755Z,57.3
2023-02-23T19:18:46.729Z,57.2
2023-02-23T19:24:40.405Z,57.1
2023-02-23T19:30:17.717Z,57.1
2023-02-23T19:36:12.904Z,57.1
2023-02-23T19:42:05.957Z,57
2023-02-23T19:47:58.091Z,56.9
2023-02-23T19:53:51.298Z,56.9
2023-02-23T19:59:42.661Z,56.9
2023-02-23T20:05:37.032Z,56.8
2023-02-23T20:11:30.163Z,56.8
2023-02-23T20:17:23.522Z,56.7
2023-02-23T20:23:15.606Z,56.7
2023-02-23T20:29:08.677Z,56.6
2023-02-23T20:35:03.913Z,56.6
2023-02-23T20:40:57.080Z,56.5
2023-02-23T20:46:50.607Z,56.5
2023-02-23T20:52:43.777Z,56.4
2023-02-23T20:58:21.871Z,56.4
2023-02-23T21:04:01.046Z,56.3
2023-02-23T21:09:54.358Z,56.3
2023-02-23T21:15:47.246Z,56.3
2023-02-23T21:21:27.033Z,56.2
2023-02-23T21:27:20.112Z,56.2
2023-02-23T21:32:46.158Z,56.1
2023-02-23T21:38:39.665Z,56.1
2023-02-23T21:44:32.678Z,56
2023-02-23T21:50:25.910Z,55.9
2023-02-23T21:56:26.461Z,55.9
2023-02-23T22:02:19.852Z,55.9
2023-02-23T22:08:12.348Z,55.8
2023-02-23T22:13:48.941Z,55.8
2023-02-23T22:19:42.950Z,55.8
2023-02-23T22:25:35.715Z,55.7
2023-02-23T22:31:28.496Z,55.6
2023-02-23T22:37:22.266Z,55.6
2023-02-23T22:42:59.213Z,55.6
2023-02-23T22:48:52.327Z,55.5
2023-02-23T22:55:29.613Z,55.4
2023-02-23T23:01:06.539Z,55.4
2023-02-23T23:07:00.750Z,55.4
2023-02-23T23:12:54.262Z,55.3
2023-02-23T23:19:06.404Z,55.3
2023-02-23T23:24:59.554Z,55.3
2023-02-23T23:30:51.341Z,55.2
2023-02-23T23:36:46.772Z,55.1
2023-02-23T23:42:38.992Z,55.1
2023-02-23T23:48:31.844Z,55
2023-02-23T23:54:25.264Z,55
